CFG5MA LCLK-EDDL
Flight info
| Callsign | CFG5MA |
|---|---|
| Flight time | N/A |
| Altitude | 32000 |
| Route | PHA DCT GENOS DCT TOSKA DCT USINI DCT MES DCT DISOR DCT LONTA UL608 DOLEV DCT OBUTI DCT LAMSI DCT TESDU DCT AMETU T852 TINSA T854 DOMUX DOMUX1A |
| Aircraft | A21N/M-SDE2E3FGHIRWXY/LB1 |
Departure
| Time | 2026-04-27 14:45 |
|---|---|
| Airport | Larnaca International Airport (LCLK) |
Arrival
| Time | N/A |
|---|---|
| Airport | Düsseldorf Airport (EDDL) |
| Time | Latitude | Longitude | Altitude | Speed | Heading |
|---|---|---|---|---|---|
| 2026-04-27 14:01 | 34.86836 | 33.60995 | 26 ft | 0 kts | 45° |
| 2026-04-27 14:31 | 34.86819 | 33.60975 | 30 ft | 4 kts | 45° |
| 2026-04-27 14:32 | 34.86805 | 33.60956 | 30 ft | 4 kts | 46° |
| 2026-04-27 14:32 | 34.86785 | 33.60942 | 29 ft | 4 kts | 16° |
| 2026-04-27 14:32 | 34.86769 | 33.60931 | 31 ft | 4 kts | 86° |
| 2026-04-27 14:32 | 34.86779 | 33.60913 | 28 ft | 4 kts | 135° |
| 2026-04-27 14:33 | 34.86788 | 33.60901 | 30 ft | 0 kts | 135° |
| 2026-04-27 14:35 | 34.86788 | 33.60902 | 30 ft | 1 kts | 135° |
| 2026-04-27 14:35 | 34.86781 | 33.60910 | 28 ft | 2 kts | 135° |
| 2026-04-27 14:35 | 34.86764 | 33.60930 | 31 ft | 5 kts | 135° |
| 2026-04-27 14:35 | 34.86731 | 33.60970 | 26 ft | 8 kts | 135° |
| 2026-04-27 14:36 | 34.86688 | 33.61022 | 27 ft | 9 kts | 135° |
| 2026-04-27 14:36 | 34.86647 | 33.61084 | 27 ft | 10 kts | 103° |
| 2026-04-27 14:36 | 34.86669 | 33.61169 | 26 ft | 11 kts | 49° |
| 2026-04-27 14:36 | 34.86723 | 33.61237 | 24 ft | 12 kts | 46° |
| 2026-04-27 14:37 | 34.86780 | 33.61309 | 23 ft | 12 kts | 46° |
| 2026-04-27 14:37 | 34.86838 | 33.61385 | 24 ft | 13 kts | 47° |
| 2026-04-27 14:37 | 34.86899 | 33.61466 | 24 ft | 13 kts | 45° |
| 2026-04-27 14:37 | 34.86971 | 33.61540 | 24 ft | 14 kts | 41° |
| 2026-04-27 14:38 | 34.87041 | 33.61623 | 27 ft | 14 kts | 45° |
| 2026-04-27 14:38 | 34.87113 | 33.61711 | 27 ft | 15 kts | 46° |
| 2026-04-27 14:38 | 34.87186 | 33.61803 | 27 ft | 15 kts | 45° |
| 2026-04-27 14:38 | 34.87261 | 33.61895 | 27 ft | 16 kts | 45° |
| 2026-04-27 14:39 | 34.87339 | 33.61991 | 27 ft | 16 kts | 45° |
| 2026-04-27 14:39 | 34.87418 | 33.62086 | 24 ft | 16 kts | 45° |
| 2026-04-27 14:39 | 34.87498 | 33.62186 | 23 ft | 17 kts | 46° |
| 2026-04-27 14:39 | 34.87579 | 33.62287 | 21 ft | 17 kts | 44° |
| 2026-04-27 14:40 | 34.87663 | 33.62389 | 24 ft | 17 kts | 44° |
| 2026-04-27 14:40 | 34.87749 | 33.62493 | 24 ft | 17 kts | 45° |
| 2026-04-27 14:40 | 34.87836 | 33.62599 | 26 ft | 18 kts | 45° |
| 2026-04-27 14:40 | 34.87922 | 33.62708 | 27 ft | 18 kts | 45° |
| 2026-04-27 14:41 | 34.88013 | 33.62813 | 25 ft | 18 kts | 43° |
| 2026-04-27 14:41 | 34.88104 | 33.62923 | 26 ft | 19 kts | 46° |
| 2026-04-27 14:41 | 34.88195 | 33.63036 | 23 ft | 19 kts | 46° |
| 2026-04-27 14:41 | 34.88287 | 33.63147 | 25 ft | 19 kts | 44° |
| 2026-04-27 14:42 | 34.88381 | 33.63260 | 22 ft | 19 kts | 45° |
| 2026-04-27 14:42 | 34.88431 | 33.63393 | 24 ft | 19 kts | 130° |
| 2026-04-27 14:42 | 34.88378 | 33.63540 | 24 ft | 20 kts | 126° |
| 2026-04-27 14:42 | 34.88300 | 33.63530 | 22 ft | 0 kts | 227° |
| 2026-04-27 14:44 | 34.88293 | 33.63520 | 22 ft | 11 kts | 227° |
| 2026-04-27 14:44 | 34.88075 | 33.63243 | 22 ft | 79 kts | 223° |
| 2026-04-27 14:44 | 34.87530 | 33.62577 | 23 ft | 142 kts | 224° |
| 2026-04-27 14:44 | 34.86758 | 33.61645 | 269 ft | 161 kts | 224° |
| 2026-04-27 14:45 | 34.85963 | 33.60669 | 813 ft | 165 kts | 225° |
| 2026-04-27 14:45 | 34.85161 | 33.59650 | 1324 ft | 168 kts | 226° |
| 2026-04-27 14:45 | 34.84350 | 33.58578 | 1767 ft | 180 kts | 229° |
| 2026-04-27 14:45 | 34.83459 | 33.57415 | 2071 ft | 194 kts | 230° |
| 2026-04-27 14:46 | 34.82500 | 33.56175 | 2416 ft | 208 kts | 228° |
| 2026-04-27 14:46 | 34.81475 | 33.54861 | 2826 ft | 220 kts | 229° |
| 2026-04-27 14:46 | 34.80407 | 33.53491 | 3258 ft | 231 kts | 229° |
| 2026-04-27 14:46 | 34.79243 | 33.52001 | 3502 ft | 254 kts | 228° |
| 2026-04-27 14:47 | 34.77981 | 33.50381 | 3825 ft | 272 kts | 228° |
| 2026-04-27 14:47 | 34.76661 | 33.48684 | 4402 ft | 278 kts | 228° |
| 2026-04-27 14:47 | 34.75310 | 33.46977 | 5092 ft | 281 kts | 225° |
| 2026-04-27 14:47 | 34.73875 | 33.45335 | 5774 ft | 285 kts | 224° |
| 2026-04-27 14:48 | 34.72435 | 33.43658 | 6442 ft | 288 kts | 225° |
| 2026-04-27 14:48 | 34.69575 | 33.40155 | 7734 ft | 294 kts | 226° |
| 2026-04-27 14:48 | 34.68236 | 33.38262 | 8356 ft | 297 kts | 239° |
| 2026-04-27 14:49 | 34.67529 | 33.35927 | 8955 ft | 296 kts | 264° |
| 2026-04-27 14:49 | 34.67421 | 33.33431 | 9592 ft | 297 kts | 272° |
| 2026-04-27 14:49 | 34.67467 | 33.30942 | 10137 ft | 301 kts | 275° |
| 2026-04-27 14:49 | 34.67647 | 33.28354 | 10436 ft | 315 kts | 278° |
| 2026-04-27 14:50 | 34.67865 | 33.25639 | 10682 ft | 331 kts | 277° |
| 2026-04-27 14:50 | 34.68049 | 33.22773 | 10908 ft | 347 kts | 276° |
| 2026-04-27 14:50 | 34.68245 | 33.19792 | 11148 ft | 361 kts | 277° |
| 2026-04-27 14:50 | 34.68511 | 33.16719 | 11601 ft | 368 kts | 277° |
| 2026-04-27 14:51 | 34.68721 | 33.13604 | 12220 ft | 370 kts | 275° |
| 2026-04-27 14:51 | 34.68882 | 33.10476 | 12882 ft | 371 kts | 275° |
| 2026-04-27 14:51 | 34.68990 | 33.07381 | 13545 ft | 372 kts | 272° |
| 2026-04-27 14:51 | 34.69010 | 33.05253 | 13971 ft | 372 kts | 272° |
| 2026-04-27 14:52 | 34.69212 | 33.01079 | 14678 ft | 375 kts | 276° |
| 2026-04-27 14:52 | 34.69398 | 32.97913 | 15193 ft | 378 kts | 275° |
| 2026-04-27 14:52 | 34.69556 | 32.94706 | 15655 ft | 382 kts | 275° |
| 2026-04-27 14:52 | 34.69694 | 32.91454 | 16180 ft | 385 kts | 274° |
| 2026-04-27 14:53 | 34.69821 | 32.88190 | 16679 ft | 388 kts | 275° |
| 2026-04-27 14:53 | 34.69944 | 32.84909 | 17193 ft | 390 kts | 275° |
| 2026-04-27 14:53 | 34.70065 | 32.81633 | 17689 ft | 393 kts | 274° |
| 2026-04-27 14:53 | 34.70187 | 32.78297 | 18188 ft | 397 kts | 274° |
| 2026-04-27 14:54 | 34.70309 | 32.74923 | 18621 ft | 400 kts | 274° |
| 2026-04-27 14:54 | 34.70430 | 32.71547 | 19073 ft | 402 kts | 274° |
| 2026-04-27 14:54 | 34.70550 | 32.68146 | 19512 ft | 404 kts | 274° |
| 2026-04-27 14:54 | 34.70671 | 32.64716 | 19923 ft | 406 kts | 274° |
| 2026-04-27 14:55 | 34.70794 | 32.61265 | 20319 ft | 409 kts | 274° |
| 2026-04-27 14:55 | 34.70914 | 32.57804 | 20741 ft | 411 kts | 274° |
| 2026-04-27 14:55 | 34.71034 | 32.54324 | 21162 ft | 413 kts | 274° |
| 2026-04-27 14:55 | 34.71140 | 32.50852 | 21572 ft | 416 kts | 272° |
| 2026-04-27 14:56 | 34.71019 | 32.47330 | 21956 ft | 420 kts | 266° |
| 2026-04-27 14:56 | 34.70703 | 32.43790 | 22338 ft | 422 kts | 266° |
| 2026-04-27 14:56 | 34.70711 | 32.40221 | 22710 ft | 423 kts | 275° |
| 2026-04-27 14:56 | 34.70827 | 32.36637 | 23093 ft | 425 kts | 273° |
| 2026-04-27 14:57 | 34.70811 | 32.33016 | 23480 ft | 428 kts | 270° |
| 2026-04-27 14:57 | 34.70687 | 32.29449 | 23856 ft | 428 kts | 269° |
| 2026-04-27 14:57 | 34.70509 | 32.25830 | 24217 ft | 429 kts | 268° |
| 2026-04-27 14:57 | 34.70313 | 32.22209 | 24565 ft | 431 kts | 268° |
| 2026-04-27 14:58 | 34.70112 | 32.18565 | 24899 ft | 432 kts | 268° |
| 2026-04-27 14:58 | 34.69910 | 32.14913 | 25221 ft | 433 kts | 268° |
| 2026-04-27 14:58 | 34.69712 | 32.11253 | 25540 ft | 434 kts | 268° |
| 2026-04-27 14:58 | 34.69347 | 32.07587 | 25847 ft | 437 kts | 262° |
| 2026-04-27 14:59 | 34.68842 | 32.03943 | 26171 ft | 438 kts | 263° |
| 2026-04-27 14:59 | 34.68464 | 32.00316 | 26493 ft | 438 kts | 266° |
| 2026-04-27 14:59 | 34.68189 | 31.96638 | 26805 ft | 438 kts | 268° |
| 2026-04-27 14:59 | 34.67968 | 31.92932 | 27111 ft | 439 kts | 269° |
| 2026-04-27 15:00 | 34.68004 | 31.89221 | 27400 ft | 438 kts | 278° |
| 2026-04-27 15:00 | 34.68486 | 31.85563 | 27690 ft | 438 kts | 282° |
| 2026-04-27 15:00 | 34.69070 | 31.81932 | 27965 ft | 439 kts | 283° |
| 2026-04-27 15:00 | 34.69667 | 31.78291 | 28256 ft | 440 kts | 283° |
| 2026-04-27 15:01 | 34.70258 | 31.74636 | 28616 ft | 439 kts | 282° |
| 2026-04-27 15:01 | 34.70830 | 31.71046 | 28979 ft | 437 kts | 282° |
| 2026-04-27 15:01 | 34.71410 | 31.67425 | 29349 ft | 436 kts | 283° |
| 2026-04-27 15:01 | 34.71983 | 31.63808 | 29709 ft | 434 kts | 282° |
| 2026-04-27 15:02 | 34.72546 | 31.60208 | 30035 ft | 433 kts | 282° |
| 2026-04-27 15:02 | 34.72919 | 31.57827 | 30211 ft | 432 kts | 282° |
| 2026-04-27 15:02 | 34.73477 | 31.54236 | 30447 ft | 432 kts | 282° |
| 2026-04-27 15:02 | 34.74221 | 31.49480 | 30735 ft | 431 kts | 282° |
| 2026-04-27 15:03 | 34.74778 | 31.45893 | 30968 ft | 431 kts | 282° |
| 2026-04-27 15:03 | 34.75155 | 31.43485 | 31123 ft | 430 kts | 282° |
| 2026-04-27 15:03 | 34.75709 | 31.39947 | 31333 ft | 430 kts | 282° |
| 2026-04-27 15:03 | 34.76265 | 31.36373 | 31541 ft | 430 kts | 282° |
| 2026-04-27 15:04 | 34.76812 | 31.32799 | 31755 ft | 430 kts | 282° |
| 2026-04-27 15:04 | 34.77363 | 31.29222 | 31946 ft | 429 kts | 282° |
| 2026-04-27 15:04 | 34.78457 | 31.22063 | 31979 ft | 431 kts | 281° |
| 2026-04-27 15:05 | 34.79562 | 31.14873 | 31959 ft | 431 kts | 282° |
| 2026-04-27 15:05 | 34.80658 | 31.07751 | 31955 ft | 431 kts | 281° |
| 2026-04-27 15:06 | 34.81748 | 31.00556 | 31950 ft | 431 kts | 281° |
| 2026-04-27 15:06 | 34.82843 | 30.93422 | 31948 ft | 430 kts | 282° |
| 2026-04-27 15:07 | 34.83973 | 30.86261 | 31951 ft | 431 kts | 281° |
| 2026-04-27 15:07 | 34.85052 | 30.79081 | 31946 ft | 431 kts | 281° |
| 2026-04-27 15:08 | 34.86112 | 30.71940 | 31950 ft | 431 kts | 281° |
| 2026-04-27 15:08 | 34.87182 | 30.64767 | 31950 ft | 430 kts | 281° |
| 2026-04-27 15:09 | 34.88242 | 30.57579 | 31953 ft | 431 kts | 281° |
| 2026-04-27 15:09 | 34.89282 | 30.50386 | 31951 ft | 431 kts | 281° |
| 2026-04-27 15:10 | 34.90344 | 30.43199 | 31955 ft | 431 kts | 281° |
| 2026-04-27 15:10 | 34.91401 | 30.36060 | 31951 ft | 431 kts | 281° |
| 2026-04-27 15:11 | 34.92469 | 30.28883 | 31949 ft | 431 kts | 281° |
| 2026-04-27 15:11 | 34.93509 | 30.21705 | 31951 ft | 431 kts | 280° |
| 2026-04-27 15:12 | 34.94549 | 30.14493 | 31953 ft | 431 kts | 281° |
| 2026-04-27 15:12 | 34.95560 | 30.07282 | 31957 ft | 431 kts | 280° |
| 2026-04-27 15:13 | 34.96963 | 30.00231 | 31952 ft | 431 kts | 293° |
| 2026-04-27 15:13 | 35.00052 | 29.94180 | 31833 ft | 403 kts | 307° |
| 2026-04-27 15:14 | 35.01707 | 29.91583 | 31988 ft | 374 kts | 307° |
| 2026-04-27 15:14 | 35.03285 | 29.89125 | 31613 ft | 361 kts | 307° |
| 2026-04-27 15:14 | 35.04799 | 29.86786 | 31464 ft | 341 kts | 308° |
| 2026-04-27 15:14 | 35.06245 | 29.84600 | 31288 ft | 322 kts | 308° |